Mount Vernon, Arkansas
Current Conditions -  °F | °C
As of 6:18 PM on Sunday 23 Nov 2014 (Local Time) from KLRF Reporting Station
Scattered Clouds Scattered Clouds  
Wind Chill: 16°   Ceiling: Unl
Heat Index: 16°   Visibility: 10mi
Dew Point: 16°   Wind: 6mph
Humidity: 100%   Direction: 180°S
Pressure: 29.41"   Gusts: NA
Location:  35.23°N, 92.12°W
Report Text: KLRF 240018Z AUTO 18005KT 10SM SCT009 16/16 A2941 RMK AO2
Loading
Personal Weather Stations






























Interactive Weather Map New forecast layout! Learn more

10-Day Weather Forecast

Advertisements
Track Severe Weather on mobile